VTBS Airport Information

Runway Information
Runway 01L Length 12139 ft width 197 ft
Elevation 0 ft Threshold 0 ft Heading 14
Runway 19R Length 12139 ft Width 197 ft
Elevation 0 ft Threshold 0 ft Heading 194
Runway 01R Length 13123 ft width 197 ft
Elevation 0 ft Threshold 0 ft Heading 14
Runway 19L Length 13123 ft Width 197 ft
Elevation 0 ft Threshold 0 ft Heading 194
Airport Frequencies
Type ATIS Name Frequency 127.8 MHZ
Type GROUND (EA Name Frequency 121.65 MHZ
Type GROUND (MA Name Frequency 121.75 MHZ
Type GROUND (WE Name Frequency 121.95 MHZ
Type TOWER (01L Name Frequency 119 MHZ
Type TOWER (01R Name Frequency 118.2 MHZ
Airport Navaids
Type VOR-DME Name Suvarnabhumi Intl Frequency 111400 KHZ
Airport Weather Information & NOTAM
ADDS - METARS form results

(0020 UTC 02 August 2021)
Data provider http://aviationweather.gov/metar/data/
 
METAR text: VTBS 020000Z 22003KT 9999 FEW025 28/23 Q1006 NOSIG
Conditions at: VTBS (CHON BURI/SATTAH, TH) observed 0000 UTC 02 August 2021
Temperature: 28.0°C (82°F)
Dewpoint: 23.0°C (73°F) [RH = 74%]
Pressure (altimeter): 29.70 inches Hg (1006.0 mb)
Winds: from the SW (220 degrees) at 3 MPH (3 knots; 1.5 m/s)
Visibility: 6 or more miles (10+ km)
Ceiling: at least 12,000 feet AGL
Clouds: few clouds at 2500 feet AGL
Weather: no significant weather observed at this time

METAR text: VTBS 012330Z 23003KT 9999 FEW025 28/23 Q1006 NOSIG
Conditions at: VTBS (CHON BURI/SATTAH, TH) observed 2330 UTC 01 August 2021
Temperature: 28.0°C (82°F)
Dewpoint: 23.0°C (73°F) [RH = 74%]
Pressure (altimeter): 29.70 inches Hg (1006.0 mb)
Winds: from the SW (230 degrees) at 3 MPH (3 knots; 1.5 m/s)
Visibility: 6 or more miles (10+ km)
Ceiling: at least 12,000 feet AGL
Clouds: few clouds at 2500 feet AGL
Weather: no significant weather observed at this time

Forecast for: VTBS (CHON BURI/SATTAH, TH)
Text: TAF VTBS 012300Z 0200/0306 22008KT 9999 FEW020
Forecast period: 0000 UTC 02 August 2021 to 0600 UTC 03 August 2021
Forecast type: FROM: standard forecast or significant change
Winds: from the SW (220 degrees) at 9 MPH (8 knots; 4.1 m/s)
Visibility: 6 or more miles (10+ km)
Ceiling: at least 12,000 feet AGL
Clouds: few clouds at 2000 feet AGL
Weather: no significant weather forecast for this period
Text: TEMPO 0207/0211 VRB15KT 3000 TSRA FEW018CB SCT030
Forecast period: 0700 to 1100 UTC 02 August 2021
Forecast type: TEMPORARY: The following changes expected for less than half the time period
Winds: variable direction winds at 17 MPH (15 knots; 7.7 m/s)
Visibility: 1.86 miles (2.99 km)
Ceiling: at least 12,000 feet AGL
Clouds: few clouds at 1800 feet AGL
scattered clouds at 3000 feet AGL
Weather: TSRA  (rain associated with thunderstorm(s))